sensor_id;sensor_type;location;lat;lon;timestamp;P1;durP1;ratioP1;P2;durP2;ratioP2
15480;SDS011;7842;50.904;6.670;2023-07-31T00:01:24;5.72;;;3.55;;
15480;SDS011;7842;50.904;6.670;2023-07-31T00:03:50;7.15;;;3.65;;
15480;SDS011;7842;50.904;6.670;2023-07-31T00:06:16;6.75;;;3.70;;
15480;SDS011;7842;50.904;6.670;2023-07-31T00:08:42;6.25;;;3.60;;
15480;SDS011;7842;50.904;6.670;2023-07-31T00:11:08;7.03;;;3.60;;
15480;SDS011;7842;50.904;6.670;2023-07-31T00:13:34;5.25;;;3.70;;
15480;SDS011;7842;50.904;6.670;2023-07-31T00:16:00;8.68;;;3.72;;
15480;SDS011;7842;50.904;6.670;2023-07-31T00:18:26;6.55;;;3.60;;
15480;SDS011;7842;50.904;6.670;2023-07-31T00:20:52;5.15;;;3.22;;
15480;SDS011;7842;50.904;6.670;2023-07-31T00:23:18;6.45;;;3.33;;
15480;SDS011;7842;50.904;6.670;2023-07-31T00:25:44;6.40;;;3.20;;
15480;SDS011;7842;50.904;6.670;2023-07-31T00:28:10;5.47;;;3.30;;
15480;SDS011;7842;50.904;6.670;2023-07-31T00:30:36;5.78;;;3.22;;
15480;SDS011;7842;50.904;6.670;2023-07-31T00:33:02;5.20;;;3.22;;
15480;SDS011;7842;50.904;6.670;2023-07-31T00:35:28;7.20;;;3.38;;
15480;SDS011;7842;50.904;6.670;2023-07-31T00:37:54;5.47;;;3.00;;
15480;SDS011;7842;50.904;6.670;2023-07-31T00:40:21;5.63;;;3.10;;
15480;SDS011;7842;50.904;6.670;2023-07-31T00:42:46;5.20;;;3.17;;
15480;SDS011;7842;50.904;6.670;2023-07-31T00:45:12;5.13;;;3.20;;
15480;SDS011;7842;50.904;6.670;2023-07-31T00:47:37;5.95;;;3.38;;
15480;SDS011;7842;50.904;6.670;2023-07-31T00:50:03;4.77;;;3.00;;
15480;SDS011;7842;50.904;6.670;2023-07-31T00:52:30;4.80;;;3.30;;
15480;SDS011;7842;50.904;6.670;2023-07-31T00:54:56;5.30;;;3.10;;
15480;SDS011;7842;50.904;6.670;2023-07-31T00:57:22;6.60;;;3.10;;
15480;SDS011;7842;50.904;6.670;2023-07-31T00:59:48;6.50;;;3.27;;
15480;SDS011;7842;50.904;6.670;2023-07-31T01:02:13;7.00;;;3.28;;
15480;SDS011;7842;50.904;6.670;2023-07-31T01:04:39;6.13;;;2.83;;
15480;SDS011;7842;50.904;6.670;2023-07-31T01:09:43;6.13;;;3.20;;
15480;SDS011;7842;50.904;6.670;2023-07-31T01:12:31;6.60;;;3.45;;
15480;SDS011;7842;50.904;6.670;2023-07-31T01:15:03;5.57;;;2.85;;
15480;SDS011;7842;50.904;6.670;2023-07-31T01:17:39;5.93;;;3.30;;
15480;SDS011;7842;50.904;6.670;2023-07-31T01:20:13;5.13;;;3.03;;
15480;SDS011;7842;50.904;6.670;2023-07-31T01:28:55;5.45;;;2.95;;
15480;SDS011;7842;50.904;6.670;2023-07-31T01:31:26;5.97;;;3.00;;
15480;SDS011;7842;50.904;6.670;2023-07-31T01:33:56;6.20;;;3.20;;
15480;SDS011;7842;50.904;6.670;2023-07-31T01:36:24;4.60;;;2.60;;
15480;SDS011;7842;50.904;6.670;2023-07-31T01:38:50;4.90;;;3.10;;
15480;SDS011;7842;50.904;6.670;2023-07-31T01:41:16;5.67;;;3.00;;
15480;SDS011;7842;50.904;6.670;2023-07-31T01:43:43;5.70;;;3.00;;
15480;SDS011;7842;50.904;6.670;2023-07-31T01:46:09;5.73;;;3.23;;
15480;SDS011;7842;50.904;6.670;2023-07-31T01:48:34;4.27;;;2.87;;
15480;SDS011;7842;50.904;6.670;2023-07-31T01:51:01;5.85;;;3.25;;
15480;SDS011;7842;50.904;6.670;2023-07-31T01:53:28;6.00;;;3.33;;
15480;SDS011;7842;50.904;6.670;2023-07-31T01:55:54;5.88;;;3.10;;
15480;SDS011;7842;50.904;6.670;2023-07-31T01:58:19;7.45;;;3.65;;
15480;SDS011;7842;50.904;6.670;2023-07-31T02:00:45;5.43;;;3.37;;
15480;SDS011;7842;50.904;6.670;2023-07-31T02:03:11;6.93;;;3.42;;
15480;SDS011;7842;50.904;6.670;2023-07-31T02:05:43;5.73;;;3.00;;
15480;SDS011;7842;50.904;6.670;2023-07-31T02:08:13;7.80;;;3.70;;
15480;SDS011;7842;50.904;6.670;2023-07-31T02:10:38;6.90;;;3.22;;
15480;SDS011;7842;50.904;6.670;2023-07-31T02:13:04;5.72;;;3.22;;
15480;SDS011;7842;50.904;6.670;2023-07-31T02:15:30;4.67;;;3.30;;
15480;SDS011;7842;50.904;6.670;2023-07-31T02:17:56;5.17;;;3.57;;
15480;SDS011;7842;50.904;6.670;2023-07-31T02:20:22;5.75;;;3.13;;
15480;SDS011;7842;50.904;6.670;2023-07-31T02:22:47;6.95;;;3.40;;
15480;SDS011;7842;50.904;6.670;2023-07-31T02:25:13;6.63;;;3.65;;
15480;SDS011;7842;50.904;6.670;2023-07-31T02:27:38;5.90;;;3.73;;
15480;SDS011;7842;50.904;6.670;2023-07-31T02:30:04;4.28;;;3.10;;
15480;SDS011;7842;50.904;6.670;2023-07-31T02:32:30;6.00;;;3.38;;
15480;SDS011;7842;50.904;6.670;2023-07-31T02:34:56;7.88;;;3.30;;
15480;SDS011;7842;50.904;6.670;2023-07-31T02:37:21;6.93;;;3.57;;
15480;SDS011;7842;50.904;6.670;2023-07-31T02:39:48;6.63;;;3.58;;
15480;SDS011;7842;50.904;6.670;2023-07-31T02:42:14;7.73;;;3.70;;
15480;SDS011;7842;50.904;6.670;2023-07-31T02:44:39;8.48;;;3.75;;
15480;SDS011;7842;50.904;6.670;2023-07-31T02:47:05;6.57;;;3.55;;
15480;SDS011;7842;50.904;6.670;2023-07-31T02:49:31;5.00;;;3.30;;
15480;SDS011;7842;50.904;6.670;2023-07-31T02:51:57;7.38;;;3.35;;
15480;SDS011;7842;50.904;6.670;2023-07-31T02:54:22;7.07;;;3.15;;
15480;SDS011;7842;50.904;6.670;2023-07-31T02:56:48;6.47;;;3.50;;
15480;SDS011;7842;50.904;6.670;2023-07-31T02:59:14;7.40;;;3.60;;
15480;SDS011;7842;50.904;6.670;2023-07-31T03:01:40;5.10;;;3.70;;
15480;SDS011;7842;50.904;6.670;2023-07-31T03:04:05;5.97;;;3.40;;
15480;SDS011;7842;50.904;6.670;2023-07-31T03:06:31;6.47;;;3.42;;
15480;SDS011;7842;50.904;6.670;2023-07-31T03:08:57;5.17;;;3.33;;
15480;SDS011;7842;50.904;6.670;2023-07-31T03:11:23;8.18;;;3.75;;
15480;SDS011;7842;50.904;6.670;2023-07-31T03:13:48;6.87;;;3.90;;
15480;SDS011;7842;50.904;6.670;2023-07-31T03:16:14;8.73;;;3.70;;
15480;SDS011;7842;50.904;6.670;2023-07-31T03:18:39;5.97;;;3.63;;
15480;SDS011;7842;50.904;6.670;2023-07-31T03:21:05;8.23;;;4.00;;
15480;SDS011;7842;50.904;6.670;2023-07-31T03:23:30;5.43;;;3.55;;
15480;SDS011;7842;50.904;6.670;2023-07-31T03:25:57;7.33;;;3.63;;
15480;SDS011;7842;50.904;6.670;2023-07-31T03:28:23;8.15;;;4.05;;
15480;SDS011;7842;50.904;6.670;2023-07-31T03:30:49;7.53;;;3.90;;
15480;SDS011;7842;50.904;6.670;2023-07-31T03:33:15;7.28;;;4.00;;
15480;SDS011;7842;50.904;6.670;2023-07-31T03:35:41;7.67;;;4.17;;
15480;SDS011;7842;50.904;6.670;2023-07-31T03:38:07;8.03;;;4.13;;
15480;SDS011;7842;50.904;6.670;2023-07-31T03:40:32;6.57;;;3.78;;
15480;SDS011;7842;50.904;6.670;2023-07-31T03:43:00;5.40;;;3.50;;
15480;SDS011;7842;50.904;6.670;2023-07-31T03:45:25;7.13;;;3.72;;
15480;SDS011;7842;50.904;6.670;2023-07-31T03:47:51;7.23;;;4.00;;
15480;SDS011;7842;50.904;6.670;2023-07-31T03:50:17;6.90;;;3.72;;
15480;SDS011;7842;50.904;6.670;2023-07-31T03:52:42;6.85;;;4.13;;
15480;SDS011;7842;50.904;6.670;2023-07-31T03:55:08;5.77;;;3.90;;
15480;SDS011;7842;50.904;6.670;2023-07-31T03:57:37;10.32;;;4.80;;
15480;SDS011;7842;50.904;6.670;2023-07-31T04:00:02;6.70;;;3.92;;
15480;SDS011;7842;50.904;6.670;2023-07-31T04:02:28;7.95;;;4.35;;
15480;SDS011;7842;50.904;6.670;2023-07-31T04:04:54;6.57;;;4.00;;
15480;SDS011;7842;50.904;6.670;2023-07-31T04:07:19;6.03;;;4.00;;
15480;SDS011;7842;50.904;6.670;2023-07-31T04:09:45;7.47;;;4.80;;
15480;SDS011;7842;50.904;6.670;2023-07-31T04:12:11;6.50;;;4.00;;
15480;SDS011;7842;50.904;6.670;2023-07-31T04:14:36;5.95;;;4.00;;
15480;SDS011;7842;50.904;6.670;2023-07-31T04:17:02;6.97;;;4.18;;
15480;SDS011;7842;50.904;6.670;2023-07-31T04:19:28;7.23;;;3.87;;
15480;SDS011;7842;50.904;6.670;2023-07-31T04:21:53;6.40;;;4.05;;
15480;SDS011;7842;50.904;6.670;2023-07-31T04:24:19;7.10;;;4.10;;
15480;SDS011;7842;50.904;6.670;2023-07-31T04:26:49;7.55;;;4.28;;
15480;SDS011;7842;50.904;6.670;2023-07-31T04:29:16;6.47;;;4.05;;
15480;SDS011;7842;50.904;6.670;2023-07-31T04:31:42;7.35;;;4.25;;
15480;SDS011;7842;50.904;6.670;2023-07-31T04:34:07;8.57;;;4.50;;
15480;SDS011;7842;50.904;6.670;2023-07-31T04:36:33;6.70;;;3.97;;
15480;SDS011;7842;50.904;6.670;2023-07-31T04:38:59;6.53;;;4.15;;
15480;SDS011;7842;50.904;6.670;2023-07-31T04:41:25;6.85;;;3.83;;
15480;SDS011;7842;50.904;6.670;2023-07-31T04:43:51;6.50;;;3.97;;
15480;SDS011;7842;50.904;6.670;2023-07-31T04:46:16;6.65;;;4.03;;
15480;SDS011;7842;50.904;6.670;2023-07-31T04:48:42;6.45;;;4.07;;
15480;SDS011;7842;50.904;6.670;2023-07-31T04:51:08;6.30;;;3.90;;
15480;SDS011;7842;50.904;6.670;2023-07-31T04:53:36;5.40;;;3.60;;
15480;SDS011;7842;50.904;6.670;2023-07-31T04:56:02;5.55;;;3.85;;
15480;SDS011;7842;50.904;6.670;2023-07-31T04:58:28;5.83;;;3.80;;
15480;SDS011;7842;50.904;6.670;2023-07-31T05:00:53;5.60;;;3.90;;
15480;SDS011;7842;50.904;6.670;2023-07-31T05:03:19;6.50;;;3.90;;
15480;SDS011;7842;50.904;6.670;2023-07-31T05:05:45;5.23;;;3.60;;
15480;SDS011;7842;50.904;6.670;2023-07-31T05:08:10;6.57;;;3.93;;
15480;SDS011;7842;50.904;6.670;2023-07-31T05:10:36;6.78;;;4.05;;
15480;SDS011;7842;50.904;6.670;2023-07-31T05:13:02;6.87;;;4.00;;
15480;SDS011;7842;50.904;6.670;2023-07-31T05:15:28;6.75;;;3.67;;
15480;SDS011;7842;50.904;6.670;2023-07-31T05:17:53;5.07;;;3.80;;
15480;SDS011;7842;50.904;6.670;2023-07-31T05:20:19;5.95;;;3.90;;
15480;SDS011;7842;50.904;6.670;2023-07-31T05:22:45;6.85;;;4.10;;
15480;SDS011;7842;50.904;6.670;2023-07-31T05:25:11;5.97;;;3.97;;
15480;SDS011;7842;50.904;6.670;2023-07-31T05:27:37;7.30;;;4.07;;
15480;SDS011;7842;50.904;6.670;2023-07-31T05:30:02;5.43;;;3.70;;
15480;SDS011;7842;50.904;6.670;2023-07-31T05:32:29;5.85;;;3.60;;
15480;SDS011;7842;50.904;6.670;2023-07-31T05:34:54;7.63;;;4.15;;
15480;SDS011;7842;50.904;6.670;2023-07-31T05:37:20;5.90;;;3.77;;
15480;SDS011;7842;50.904;6.670;2023-07-31T05:39:46;5.78;;;3.42;;
15480;SDS011;7842;50.904;6.670;2023-07-31T05:42:11;6.93;;;3.77;;
15480;SDS011;7842;50.904;6.670;2023-07-31T05:44:37;6.78;;;3.63;;
15480;SDS011;7842;50.904;6.670;2023-07-31T05:47:03;5.20;;;3.57;;
15480;SDS011;7842;50.904;6.670;2023-07-31T05:49:29;6.28;;;3.85;;
15480;SDS011;7842;50.904;6.670;2023-07-31T05:51:55;5.80;;;3.47;;
15480;SDS011;7842;50.904;6.670;2023-07-31T05:54:21;5.67;;;3.60;;
15480;SDS011;7842;50.904;6.670;2023-07-31T05:56:46;5.97;;;3.45;;
15480;SDS011;7842;50.904;6.670;2023-07-31T05:59:15;6.30;;;3.42;;
15480;SDS011;7842;50.904;6.670;2023-07-31T06:01:41;6.03;;;3.60;;
15480;SDS011;7842;50.904;6.670;2023-07-31T06:04:07;5.83;;;3.40;;
15480;SDS011;7842;50.904;6.670;2023-07-31T06:06:32;6.43;;;3.30;;
15480;SDS011;7842;50.904;6.670;2023-07-31T06:08:58;6.88;;;3.67;;
15480;SDS011;7842;50.904;6.670;2023-07-31T06:11:24;6.03;;;3.70;;
15480;SDS011;7842;50.904;6.670;2023-07-31T06:13:49;5.95;;;3.65;;
15480;SDS011;7842;50.904;6.670;2023-07-31T06:16:15;6.60;;;3.50;;
15480;SDS011;7842;50.904;6.670;2023-07-31T06:18:41;6.70;;;3.45;;
15480;SDS011;7842;50.904;6.670;2023-07-31T06:21:07;6.25;;;3.42;;
15480;SDS011;7842;50.904;6.670;2023-07-31T06:23:34;7.18;;;3.88;;
15480;SDS011;7842;50.904;6.670;2023-07-31T06:25:59;6.30;;;3.38;;
15480;SDS011;7842;50.904;6.670;2023-07-31T06:28:28;6.78;;;3.80;;
15480;SDS011;7842;50.904;6.670;2023-07-31T06:30:54;6.13;;;3.75;;
15480;SDS011;7842;50.904;6.670;2023-07-31T06:33:20;6.20;;;3.45;;
15480;SDS011;7842;50.904;6.670;2023-07-31T06:35:46;7.30;;;3.67;;
15480;SDS011;7842;50.904;6.670;2023-07-31T06:38:12;6.50;;;3.75;;
15480;SDS011;7842;50.904;6.670;2023-07-31T06:40:37;6.32;;;3.70;;
15480;SDS011;7842;50.904;6.670;2023-07-31T06:43:03;5.80;;;3.57;;
15480;SDS011;7842;50.904;6.670;2023-07-31T06:45:33;6.55;;;3.40;;
15480;SDS011;7842;50.904;6.670;2023-07-31T06:48:00;5.68;;;3.30;;
15480;SDS011;7842;50.904;6.670;2023-07-31T06:50:27;6.18;;;3.45;;
15480;SDS011;7842;50.904;6.670;2023-07-31T06:52:56;6.72;;;3.95;;
15480;SDS011;7842;50.904;6.670;2023-07-31T06:55:22;5.88;;;3.50;;
15480;SDS011;7842;50.904;6.670;2023-07-31T06:57:48;7.75;;;4.00;;
15480;SDS011;7842;50.904;6.670;2023-07-31T07:00:15;8.13;;;3.60;;
15480;SDS011;7842;50.904;6.670;2023-07-31T07:02:41;6.00;;;3.30;;
15480;SDS011;7842;50.904;6.670;2023-07-31T07:05:07;7.07;;;3.70;;
15480;SDS011;7842;50.904;6.670;2023-07-31T07:07:33;5.38;;;3.70;;
15480;SDS011;7842;50.904;6.670;2023-07-31T07:10:02;5.05;;;3.35;;
15480;SDS011;7842;50.904;6.670;2023-07-31T07:12:29;5.63;;;3.50;;
15480;SDS011;7842;50.904;6.670;2023-07-31T07:14:55;5.90;;;3.33;;
15480;SDS011;7842;50.904;6.670;2023-07-31T07:17:22;5.78;;;3.60;;
15480;SDS011;7842;50.904;6.670;2023-07-31T07:19:48;5.25;;;3.17;;
15480;SDS011;7842;50.904;6.670;2023-07-31T07:22:14;6.40;;;3.47;;
15480;SDS011;7842;50.904;6.670;2023-07-31T07:24:39;5.13;;;2.60;;
15480;SDS011;7842;50.904;6.670;2023-07-31T07:27:05;4.67;;;3.00;;
15480;SDS011;7842;50.904;6.670;2023-07-31T07:29:31;5.50;;;3.28;;
15480;SDS011;7842;50.904;6.670;2023-07-31T07:31:59;7.22;;;3.50;;
15480;SDS011;7842;50.904;6.670;2023-07-31T07:34:27;6.43;;;3.00;;
15480;SDS011;7842;50.904;6.670;2023-07-31T07:36:54;5.07;;;2.95;;
15480;SDS011;7842;50.904;6.670;2023-07-31T07:39:20;4.90;;;3.00;;
15480;SDS011;7842;50.904;6.670;2023-07-31T07:41:46;6.03;;;3.30;;
15480;SDS011;7842;50.904;6.670;2023-07-31T07:44:12;5.15;;;2.95;;
15480;SDS011;7842;50.904;6.670;2023-07-31T07:46:38;4.45;;;2.97;;
15480;SDS011;7842;50.904;6.670;2023-07-31T07:49:04;5.22;;;3.17;;
15480;SDS011;7842;50.904;6.670;2023-07-31T07:51:30;5.00;;;3.20;;
15480;SDS011;7842;50.904;6.670;2023-07-31T07:53:56;5.80;;;3.30;;
15480;SDS011;7842;50.904;6.670;2023-07-31T07:56:23;3.80;;;2.75;;
15480;SDS011;7842;50.904;6.670;2023-07-31T07:58:49;4.53;;;3.08;;
15480;SDS011;7842;50.904;6.670;2023-07-31T08:01:15;4.40;;;3.15;;
15480;SDS011;7842;50.904;6.670;2023-07-31T08:03:41;4.85;;;3.08;;
15480;SDS011;7842;50.904;6.670;2023-07-31T08:06:06;4.60;;;3.27;;
15480;SDS011;7842;50.904;6.670;2023-07-31T08:08:34;5.35;;;2.80;;
15480;SDS011;7842;50.904;6.670;2023-07-31T08:11:03;5.53;;;3.20;;
15480;SDS011;7842;50.904;6.670;2023-07-31T08:13:28;4.90;;;2.90;;
15480;SDS011;7842;50.904;6.670;2023-07-31T08:15:54;3.88;;;2.83;;
15480;SDS011;7842;50.904;6.670;2023-07-31T08:18:20;5.43;;;3.08;;
15480;SDS011;7842;50.904;6.670;2023-07-31T08:20:46;6.10;;;2.97;;
15480;SDS011;7842;50.904;6.670;2023-07-31T08:23:12;4.60;;;2.95;;
15480;SDS011;7842;50.904;6.670;2023-07-31T08:25:37;4.30;;;2.80;;
15480;SDS011;7842;50.904;6.670;2023-07-31T08:28:04;4.95;;;3.15;;
15480;SDS011;7842;50.904;6.670;2023-07-31T08:30:30;4.28;;;2.75;;
15480;SDS011;7842;50.904;6.670;2023-07-31T08:32:56;5.75;;;2.80;;
15480;SDS011;7842;50.904;6.670;2023-07-31T08:35:22;5.45;;;2.80;;
15480;SDS011;7842;50.904;6.670;2023-07-31T08:37:53;4.40;;;2.67;;
15480;SDS011;7842;50.904;6.670;2023-07-31T08:40:19;5.72;;;2.90;;
15480;SDS011;7842;50.904;6.670;2023-07-31T08:42:49;4.23;;;2.80;;
15480;SDS011;7842;50.904;6.670;2023-07-31T08:45:16;5.82;;;2.88;;
15480;SDS011;7842;50.904;6.670;2023-07-31T08:47:47;5.25;;;3.15;;
15480;SDS011;7842;50.904;6.670;2023-07-31T08:50:15;4.32;;;2.75;;
15480;SDS011;7842;50.904;6.670;2023-07-31T08:52:42;5.50;;;2.65;;
15480;SDS011;7842;50.904;6.670;2023-07-31T08:55:08;2.88;;;2.30;;
15480;SDS011;7842;50.904;6.670;2023-07-31T08:57:35;3.67;;;2.38;;
15480;SDS011;7842;50.904;6.670;2023-07-31T09:00:02;4.20;;;2.50;;
15480;SDS011;7842;50.904;6.670;2023-07-31T09:02:41;3.38;;;2.35;;
15480;SDS011;7842;50.904;6.670;2023-07-31T09:05:28;4.00;;;2.70;;
15480;SDS011;7842;50.904;6.670;2023-07-31T09:07:55;3.60;;;2.53;;
15480;SDS011;7842;50.904;6.670;2023-07-31T09:10:22;4.43;;;2.30;;
15480;SDS011;7842;50.904;6.670;2023-07-31T09:12:48;3.23;;;2.50;;
15480;SDS011;7842;50.904;6.670;2023-07-31T09:15:15;4.30;;;2.80;;
15480;SDS011;7842;50.904;6.670;2023-07-31T09:17:41;3.55;;;2.60;;
15480;SDS011;7842;50.904;6.670;2023-07-31T09:22:38;4.18;;;2.63;;
15480;SDS011;7842;50.904;6.670;2023-07-31T09:25:20;4.07;;;2.92;;
15480;SDS011;7842;50.904;6.670;2023-07-31T09:30:18;3.87;;;2.63;;
15480;SDS011;7842;50.904;6.670;2023-07-31T09:32:44;4.07;;;2.47;;
15480;SDS011;7842;50.904;6.670;2023-07-31T09:37:47;5.22;;;2.70;;
15480;SDS011;7842;50.904;6.670;2023-07-31T09:40:26;4.30;;;2.60;;
15480;SDS011;7842;50.904;6.670;2023-07-31T09:42:52;4.15;;;2.75;;
15480;SDS011;7842;50.904;6.670;2023-07-31T09:45:18;3.63;;;2.47;;
15480;SDS011;7842;50.904;6.670;2023-07-31T09:47:47;3.78;;;2.50;;
15480;SDS011;7842;50.904;6.670;2023-07-31T09:50:16;4.55;;;2.50;;
15480;SDS011;7842;50.904;6.670;2023-07-31T09:52:42;3.67;;;2.23;;
15480;SDS011;7842;50.904;6.670;2023-07-31T09:55:08;4.30;;;2.73;;
15480;SDS011;7842;50.904;6.670;2023-07-31T09:57:36;4.32;;;2.38;;
15480;SDS011;7842;50.904;6.670;2023-07-31T10:00:08;3.83;;;2.60;;
15480;SDS011;7842;50.904;6.670;2023-07-31T10:02:34;3.93;;;2.37;;
15480;SDS011;7842;50.904;6.670;2023-07-31T10:05:02;5.10;;;2.77;;
15480;SDS011;7842;50.904;6.670;2023-07-31T10:07:29;3.77;;;2.53;;
15480;SDS011;7842;50.904;6.670;2023-07-31T10:09:56;4.60;;;2.67;;
15480;SDS011;7842;50.904;6.670;2023-07-31T10:12:23;4.68;;;2.63;;
15480;SDS011;7842;50.904;6.670;2023-07-31T10:14:50;4.05;;;2.45;;
15480;SDS011;7842;50.904;6.670;2023-07-31T10:17:17;4.45;;;2.42;;
15480;SDS011;7842;50.904;6.670;2023-07-31T10:19:44;3.40;;;2.40;;
15480;SDS011;7842;50.904;6.670;2023-07-31T10:22:11;4.53;;;2.20;;
15480;SDS011;7842;50.904;6.670;2023-07-31T10:24:37;4.17;;;2.30;;
15480;SDS011;7842;50.904;6.670;2023-07-31T10:27:03;4.37;;;2.30;;
15480;SDS011;7842;50.904;6.670;2023-07-31T10:29:29;4.68;;;2.40;;
15480;SDS011;7842;50.904;6.670;2023-07-31T10:31:56;3.10;;;2.10;;
15480;SDS011;7842;50.904;6.670;2023-07-31T10:34:23;2.50;;;1.70;;
15480;SDS011;7842;50.904;6.670;2023-07-31T10:36:49;2.97;;;1.92;;
15480;SDS011;7842;50.904;6.670;2023-07-31T10:39:33;3.08;;;1.98;;
15480;SDS011;7842;50.904;6.670;2023-07-31T10:42:12;2.20;;;1.67;;
15480;SDS011;7842;50.904;6.670;2023-07-31T10:44:38;2.33;;;1.35;;
15480;SDS011;7842;50.904;6.670;2023-07-31T10:47:08;1.80;;;1.30;;
15480;SDS011;7842;50.904;6.670;2023-07-31T10:49:34;2.35;;;1.23;;
15480;SDS011;7842;50.904;6.670;2023-07-31T10:51:59;1.17;;;1.00;;
15480;SDS011;7842;50.904;6.670;2023-07-31T10:54:28;2.05;;;0.90;;
15480;SDS011;7842;50.904;6.670;2023-07-31T10:56:54;1.10;;;1.00;;
15480;SDS011;7842;50.904;6.670;2023-07-31T10:59:26;1.35;;;1.08;;
15480;SDS011;7842;50.904;6.670;2023-07-31T11:01:53;1.60;;;0.85;;
15480;SDS011;7842;50.904;6.670;2023-07-31T11:04:24;1.00;;;0.88;;
15480;SDS011;7842;50.904;6.670;2023-07-31T11:06:56;1.50;;;1.08;;
15480;SDS011;7842;50.904;6.670;2023-07-31T11:09:24;1.30;;;1.20;;
15480;SDS011;7842;50.904;6.670;2023-07-31T11:11:59;1.48;;;1.05;;
15480;SDS011;7842;50.904;6.670;2023-07-31T11:14:25;1.58;;;1.10;;
15480;SDS011;7842;50.904;6.670;2023-07-31T11:16:51;1.20;;;1.00;;
15480;SDS011;7842;50.904;6.670;2023-07-31T11:19:23;1.53;;;1.20;;
15480;SDS011;7842;50.904;6.670;2023-07-31T11:21:50;1.80;;;1.00;;
15480;SDS011;7842;50.904;6.670;2023-07-31T11:24:17;1.20;;;0.88;;
15480;SDS011;7842;50.904;6.670;2023-07-31T11:26:50;1.15;;;0.85;;
15480;SDS011;7842;50.904;6.670;2023-07-31T11:29:17;1.80;;;1.00;;
15480;SDS011;7842;50.904;6.670;2023-07-31T11:31:44;1.05;;;0.95;;
15480;SDS011;7842;50.904;6.670;2023-07-31T11:34:12;1.40;;;1.00;;
15480;SDS011;7842;50.904;6.670;2023-07-31T11:36:38;0.93;;;0.90;;
15480;SDS011;7842;50.904;6.670;2023-07-31T11:39:04;1.10;;;1.00;;
15480;SDS011;7842;50.904;6.670;2023-07-31T11:41:31;2.10;;;0.90;;
15480;SDS011;7842;50.904;6.670;2023-07-31T11:44:00;1.35;;;1.00;;
15480;SDS011;7842;50.904;6.670;2023-07-31T11:46:26;1.38;;;1.17;;
15480;SDS011;7842;50.904;6.670;2023-07-31T11:48:55;1.67;;;1.17;;
15480;SDS011;7842;50.904;6.670;2023-07-31T11:51:24;1.20;;;1.00;;
15480;SDS011;7842;50.904;6.670;2023-07-31T11:53:55;1.30;;;1.20;;
15480;SDS011;7842;50.904;6.670;2023-07-31T11:56:23;1.40;;;1.30;;
15480;SDS011;7842;50.904;6.670;2023-07-31T11:58:51;1.58;;;1.20;;
15480;SDS011;7842;50.904;6.670;2023-07-31T12:01:20;2.00;;;1.40;;
15480;SDS011;7842;50.904;6.670;2023-07-31T12:03:47;2.38;;;1.50;;
15480;SDS011;7842;50.904;6.670;2023-07-31T12:06:13;2.13;;;1.40;;
15480;SDS011;7842;50.904;6.670;2023-07-31T12:08:39;2.13;;;1.48;;
15480;SDS011;7842;50.904;6.670;2023-07-31T12:11:05;2.20;;;1.60;;
15480;SDS011;7842;50.904;6.670;2023-07-31T12:13:34;2.25;;;1.75;;
15480;SDS011;7842;50.904;6.670;2023-07-31T12:16:00;2.25;;;1.90;;
15480;SDS011;7842;50.904;6.670;2023-07-31T12:18:29;2.87;;;1.90;;
15480;SDS011;7842;50.904;6.670;2023-07-31T12:20:59;3.35;;;1.60;;
15480;SDS011;7842;50.904;6.670;2023-07-31T12:23:27;3.65;;;2.00;;
15480;SDS011;7842;50.904;6.670;2023-07-31T12:28:37;2.30;;;1.92;;
15480;SDS011;7842;50.904;6.670;2023-07-31T12:31:10;3.30;;;2.10;;
15480;SDS011;7842;50.904;6.670;2023-07-31T12:33:42;2.35;;;2.00;;
15480;SDS011;7842;50.904;6.670;2023-07-31T12:36:11;2.70;;;1.85;;
15480;SDS011;7842;50.904;6.670;2023-07-31T12:38:38;2.42;;;1.98;;
15480;SDS011;7842;50.904;6.670;2023-07-31T12:41:04;2.60;;;1.90;;
15480;SDS011;7842;50.904;6.670;2023-07-31T12:43:31;3.40;;;2.25;;
15480;SDS011;7842;50.904;6.670;2023-07-31T12:45:57;3.45;;;2.70;;
15480;SDS011;7842;50.904;6.670;2023-07-31T12:48:24;3.25;;;2.33;;
15480;SDS011;7842;50.904;6.670;2023-07-31T12:50:49;3.37;;;2.67;;
15480;SDS011;7842;50.904;6.670;2023-07-31T12:53:15;3.00;;;2.55;;
15480;SDS011;7842;50.904;6.670;2023-07-31T12:55:41;3.28;;;2.25;;
15480;SDS011;7842;50.904;6.670;2023-07-31T12:58:06;2.63;;;2.17;;
15480;SDS011;7842;50.904;6.670;2023-07-31T13:00:32;3.30;;;2.13;;
15480;SDS011;7842;50.904;6.670;2023-07-31T13:02:59;3.03;;;2.30;;
15480;SDS011;7842;50.904;6.670;2023-07-31T13:05:25;3.67;;;2.38;;
15480;SDS011;7842;50.904;6.670;2023-07-31T13:07:51;3.03;;;2.33;;
15480;SDS011;7842;50.904;6.670;2023-07-31T13:10:17;3.00;;;2.50;;
15480;SDS011;7842;50.904;6.670;2023-07-31T13:12:43;3.15;;;2.47;;
15480;SDS011;7842;50.904;6.670;2023-07-31T13:15:09;3.20;;;2.23;;
15480;SDS011;7842;50.904;6.670;2023-07-31T13:17:35;3.00;;;2.47;;
15480;SDS011;7842;50.904;6.670;2023-07-31T13:20:01;2.90;;;2.30;;
15480;SDS011;7842;50.904;6.670;2023-07-31T13:22:27;2.65;;;2.13;;
15480;SDS011;7842;50.904;6.670;2023-07-31T13:24:52;2.67;;;2.00;;
15480;SDS011;7842;50.904;6.670;2023-07-31T13:27:18;3.07;;;2.20;;
15480;SDS011;7842;50.904;6.670;2023-07-31T13:29:46;2.45;;;2.10;;
15480;SDS011;7842;50.904;6.670;2023-07-31T13:32:19;3.03;;;2.10;;
15480;SDS011;7842;50.904;6.670;2023-07-31T13:34:45;3.22;;;2.20;;
15480;SDS011;7842;50.904;6.670;2023-07-31T13:37:12;2.80;;;2.28;;
15480;SDS011;7842;50.904;6.670;2023-07-31T13:39:38;3.17;;;1.98;;
15480;SDS011;7842;50.904;6.670;2023-07-31T13:42:04;2.72;;;2.13;;
15480;SDS011;7842;50.904;6.670;2023-07-31T13:44:36;2.53;;;2.30;;
15480;SDS011;7842;50.904;6.670;2023-07-31T13:47:04;2.33;;;1.90;;
15480;SDS011;7842;50.904;6.670;2023-07-31T13:49:32;2.88;;;2.13;;
15480;SDS011;7842;50.904;6.670;2023-07-31T13:51:59;3.13;;;2.30;;
15480;SDS011;7842;50.904;6.670;2023-07-31T13:54:25;3.30;;;2.20;;
15480;SDS011;7842;50.904;6.670;2023-07-31T13:56:51;2.83;;;2.28;;
15480;SDS011;7842;50.904;6.670;2023-07-31T13:59:17;3.25;;;2.25;;
15480;SDS011;7842;50.904;6.670;2023-07-31T14:01:44;2.63;;;2.17;;
15480;SDS011;7842;50.904;6.670;2023-07-31T14:04:10;3.70;;;2.60;;
15480;SDS011;7842;50.904;6.670;2023-07-31T14:06:35;4.13;;;2.38;;
15480;SDS011;7842;50.904;6.670;2023-07-31T14:09:01;3.35;;;2.60;;
15480;SDS011;7842;50.904;6.670;2023-07-31T14:11:27;3.08;;;2.40;;
15480;SDS011;7842;50.904;6.670;2023-07-31T14:13:53;2.83;;;2.30;;
15480;SDS011;7842;50.904;6.670;2023-07-31T14:16:19;4.22;;;2.95;;
15480;SDS011;7842;50.904;6.670;2023-07-31T14:18:44;2.83;;;2.50;;
15480;SDS011;7842;50.904;6.670;2023-07-31T14:21:12;3.42;;;2.40;;
15480;SDS011;7842;50.904;6.670;2023-07-31T14:23:38;3.47;;;2.85;;
15480;SDS011;7842;50.904;6.670;2023-07-31T14:26:04;5.07;;;3.20;;
15480;SDS011;7842;50.904;6.670;2023-07-31T14:28:30;5.30;;;3.50;;
15480;SDS011;7842;50.904;6.670;2023-07-31T14:30:55;5.28;;;3.30;;
15480;SDS011;7842;50.904;6.670;2023-07-31T14:33:21;4.60;;;3.10;;
15480;SDS011;7842;50.904;6.670;2023-07-31T14:35:46;4.45;;;3.35;;
15480;SDS011;7842;50.904;6.670;2023-07-31T14:38:12;4.13;;;3.27;;
15480;SDS011;7842;50.904;6.670;2023-07-31T14:40:38;4.47;;;3.38;;
15480;SDS011;7842;50.904;6.670;2023-07-31T14:43:03;4.57;;;3.50;;
15480;SDS011;7842;50.904;6.670;2023-07-31T14:45:29;5.43;;;3.60;;
15480;SDS011;7842;50.904;6.670;2023-07-31T14:47:55;4.78;;;3.63;;
15480;SDS011;7842;50.904;6.670;2023-07-31T14:50:20;4.43;;;3.10;;
15480;SDS011;7842;50.904;6.670;2023-07-31T14:52:47;4.53;;;3.45;;
15480;SDS011;7842;50.904;6.670;2023-07-31T14:55:13;3.53;;;3.10;;
15480;SDS011;7842;50.904;6.670;2023-07-31T14:57:39;4.10;;;3.42;;
15480;SDS011;7842;50.904;6.670;2023-07-31T15:00:05;4.60;;;3.70;;
15480;SDS011;7842;50.904;6.670;2023-07-31T15:02:35;4.95;;;3.30;;
15480;SDS011;7842;50.904;6.670;2023-07-31T15:05:01;4.30;;;2.95;;
15480;SDS011;7842;50.904;6.670;2023-07-31T15:07:27;4.65;;;3.55;;
15480;SDS011;7842;50.904;6.670;2023-07-31T15:09:53;4.85;;;3.20;;
15480;SDS011;7842;50.904;6.670;2023-07-31T15:12:19;5.13;;;3.37;;
15480;SDS011;7842;50.904;6.670;2023-07-31T15:14:45;4.53;;;3.50;;
15480;SDS011;7842;50.904;6.670;2023-07-31T15:17:11;3.67;;;3.13;;